3TX4 weather

Willow Run Airport
Justin, Texas, United States

Public forecast

Using degrees Fahrenheit for public forecast. Weather courtesy of forecast.io.

METAR (pilot weather report)

Closest report is Fort Worth Alliance Airport, 7.1 nm (13.2 km) SSE. Retrieved 2019/07/23 16:53 UTC (49 minutes ago):

KAFW 231653Z 04011G19KT 10SM FEW055 30/15 A3016 RMK AO2 SLP198 T03000150

TAF (pilot weather forecast)

Closest forecast is Fort Worth Alliance Airport, 7.1 nm (13.2 km) SSE. Retrieved 2019/07/23 12:22 UTC (5 hours ago):

TAF KAFW 231120Z 2312/2412 01010KT P6SM FEW060 SCT250